KTLH/TLH METAR and TAF weather

Enter ICAO airport designator
Station Type Date Time Source
KTLH METAR 2021/09/16 11:53 UTC NOAA

KTLH 161153Z 00000KT 10SM FEW003 FEW095 23/22 A2995 RMK AO2 SLP139 60005 70119 T02280222 10228 20222 53012


Station Type Date Time Source
KTLH Decoded METAR 2021/09/16 11:53 UTC NOAA

TALLAHASSEE REGIONAL AIRPORT , FL, United States (KTLH) 30-24N 84-21W 16M
Sep 16, 2021 - 07:53 AM EDT / 2021.09.16 1153 UTC
Wind: Calm:0
Visibility: 10 mile(s):0
Sky conditions: mostly clear
Temperature: 73.0 F (22.8 C)
Dew Point: 72.0 F (22.2 C)
Relative Humidity: 96%
Pressure (altimeter): 29.95 in. Hg (1014 hPa)
Pressure tendency: 0.04 inches (1.2 hPa) higher than three hours ago
ob: KTLH 161153Z 00000KT 10SM FEW003 FEW095 23/22 A2995 RMK AO2 SLP139 60005 70119 T02280222 10228 20222 53012
cycle: 12

Station Type Date Time Source
KTLH TAF 2021/09/16 12:30 UTC NOAA

TAF KTLH 161128Z 1612/1712 09003KT P6SM BKN035
TEMPO 1612/1615 P6SM -RA OVC007
FM161500 11004KT P6SM VCSH SCT010 OVC020
FM162100 13007KT 4SM BR OVC050
TEMPO 1621/1624 4SM -TSRA BKN050CB

Example: see airport list